Time;durP1;ratioP1;P1;durP2;ratioP2;P2;SDS_P1;SDS_P2;PMS_P1;PMS_P2;Temp;Humidity;BMP_temperature;BMP_pressure;BME280_temperature;BME280_humidity;BME280_pressure;Samples;Min_cycle;Max_cycle;Signal;HPM_P1;HPM_P2
2022/08/07 00:01:25;;;;;;;;;10.67;10.33;;;;;20.70;66.89;100451.22;5017559;28;45571;-75
2022/08/07 00:03:51;;;;;;;;;8.67;6.33;;;;;20.89;66.61;100483.72;5017135;28;45553;-75
2022/08/07 00:06:17;;;;;;;;;7.00;6.67;;;;;20.80;67.29;100466.13;5028416;28;46992;-75
2022/08/07 00:08:42;;;;;;;;;8.00;8.00;;;;;20.88;66.82;100474.00;5036985;28;45510;-75
2022/08/07 00:11:08;;;;;;;;;8.00;8.00;;;;;20.75;66.93;100452.03;5036546;28;45385;-75
2022/08/07 00:13:36;;;;;;;;;8.67;8.00;;;;;20.68;67.47;100450.38;5036420;28;45342;-75
2022/08/07 00:16:04;;;;;;;;;8.00;8.00;;;;;20.78;66.92;100475.91;5057474;28;45604;-75
2022/08/07 00:18:29;;;;;;;;;9.00;8.00;;;;;20.79;67.45;100469.69;5017551;28;45608;-75
2022/08/07 00:21:00;;;;;;;;;6.00;6.00;;;;;20.61;66.99;100438.94;5017343;28;45448;-75
2022/08/07 00:23:26;;;;;;;;;7.67;7.33;;;;;20.69;67.27;100455.66;5033233;28;45359;-75
2022/08/07 00:25:52;;;;;;;;;8.67;7.33;;;;;20.71;67.34;100469.81;5032858;28;45560;-75
2022/08/07 00:28:19;;;;;;;;;7.00;6.00;;;;;20.69;67.06;100474.25;5029138;28;45537;-74
2022/08/07 00:30:44;;;;;;;;;8.33;7.33;;;;;20.17;67.98;100412.03;5016374;28;45505;-75
2022/08/07 00:33:10;;;;;;;;;6.00;5.67;;;;;20.50;67.83;100468.25;5021056;28;45547;-75
2022/08/07 00:35:35;;;;;;;;;9.67;8.33;;;;;20.51;67.84;100469.13;5027765;28;45672;-74
2022/08/07 00:38:01;;;;;;;;;8.67;8.00;;;;;20.58;67.60;100476.13;5034818;28;45480;-74
2022/08/07 00:40:28;;;;;;;;;9.00;7.33;;;;;20.56;67.33;100473.47;5017001;28;45237;-75
2022/08/07 00:42:53;;;;;;;;;7.33;7.00;;;;;20.55;67.21;100477.03;5033295;28;45486;-75
2022/08/07 00:45:20;;;;;;;;;9.00;8.00;;;;;20.54;67.42;100471.75;5035880;28;45834;-75
2022/08/07 00:47:47;;;;;;;;;9.00;9.00;;;;;20.50;67.60;100472.69;5019980;28;45432;-74
2022/08/07 00:50:13;;;;;;;;;8.33;7.00;;;;;20.39;67.74;100457.78;5016915;28;45576;-74
2022/08/07 00:52:38;;;;;;;;;7.67;7.00;;;;;20.30;67.26;100441.94;5016822;28;45521;-74
2022/08/07 00:55:05;;;;;;;;;8.67;7.33;;;;;20.47;67.59;100465.63;5028332;28;45359;-74
2022/08/07 00:57:30;;;;;;;;;8.00;7.33;;;;;20.35;67.55;100461.38;5019967;28;45249;-74
2022/08/07 00:59:56;;;;;;;;;9.00;8.00;;;;;20.14;67.72;100433.28;5035680;28;45493;-74
2022/08/07 01:02:23;;;;;;;;;9.00;8.00;;;;;20.32;68.13;100457.88;5020026;28;45366;-74
2022/08/07 01:04:49;;;;;;;;;9.67;8.33;;;;;20.16;67.63;100443.91;5020017;28;45262;-75
2022/08/07 01:07:15;;;;;;;;;8.00;8.00;;;;;20.26;68.54;100464.09;5037050;28;45489;-75
2022/08/07 01:09:41;;;;;;;;;8.00;7.33;;;;;20.24;67.96;100460.59;5033627;28;45482;-75
2022/08/07 01:12:07;;;;;;;;;8.67;8.67;;;;;20.21;68.17;100457.97;5030094;28;45398;-75
2022/08/07 01:14:33;;;;;;;;;10.33;10.33;;;;;20.15;68.44;100455.38;5031166;28;45410;-74
2022/08/07 01:16:59;;;;;;;;;8.67;8.67;;;;;19.55;68.88;100366.72;5034294;28;45804;-75
2022/08/07 01:19:28;;;;;;;;;9.33;9.33;;;;;19.89;68.43;100451.22;5022971;28;45443;-75
2022/08/07 01:21:54;;;;;;;;;8.00;8.00;;;;;19.82;68.30;100410.66;5022776;28;45434;-75
2022/08/07 01:24:21;;;;;;;;;10.67;10.67;;;;;19.91;69.18;100446.78;5022439;28;46264;-74
2022/08/07 01:26:49;;;;;;;;;8.00;8.00;;;;;19.90;68.73;100433.56;5023750;28;45714;-75
2022/08/07 01:29:16;;;;;;;;;8.00;8.00;;;;;19.97;68.59;100437.91;5022848;28;45560;-75
2022/08/07 01:31:41;;;;;;;;;9.33;8.00;;;;;20.01;68.30;100445.78;5028957;28;45586;-75
2022/08/07 01:34:07;;;;;;;;;11.00;9.33;;;;;20.05;67.88;100438.69;5022500;28;45364;-74
2022/08/07 01:36:33;;;;;;;;;8.00;8.00;;;;;20.03;68.11;100428.13;5022717;28;45424;-74
2022/08/07 01:38:59;;;;;;;;;8.00;7.33;;;;;19.97;68.39;100433.47;5025852;28;45485;-75
2022/08/07 01:41:26;;;;;;;;;8.00;7.67;;;;;19.81;68.01;100416.84;5034658;28;45587;-75
2022/08/07 01:43:51;;;;;;;;;9.33;8.00;;;;;19.49;68.81;100382.66;5033637;28;46029;-75
2022/08/07 01:46:19;;;;;;;;;7.00;7.00;;;;;19.77;68.39;100440.75;5026819;28;45395;-75
2022/08/07 01:48:47;;;;;;;;;8.33;8.33;;;;;19.68;69.05;100426.66;5038365;28;45487;-74
2022/08/07 01:51:17;;;;;;;;;10.33;8.00;;;;;19.58;68.78;100405.56;5029961;28;45485;-75
2022/08/07 01:53:50;;;;;;;;;9.33;9.33;;;;;19.80;68.36;100428.34;5029677;28;45925;-75
2022/08/07 01:56:22;;;;;;;;;10.33;9.00;;;;;19.79;69.18;100428.34;5022235;28;45458;-74
2022/08/07 01:59:04;;;;;;;;;9.33;9.33;;;;;19.59;69.40;100417.91;5029921;28;45454;-75
2022/08/07 02:01:38;;;;;;;;;9.33;9.00;;;;;19.53;69.69;100429.44;5028861;28;45464;-74
2022/08/07 02:04:46;;;;;;;;;11.67;11.00;;;;;19.36;69.97;100404.84;5029743;28;46050;-75
2022/08/07 02:07:14;;;;;;;;;10.33;9.67;;;;;19.55;69.93;100427.66;4995788;28;45844;-74
2022/08/07 02:09:44;;;;;;;;;11.00;10.33;;;;;19.44;69.62;100409.22;5022474;28;45278;-74
2022/08/07 02:12:23;;;;;;;;;8.00;8.00;;;;;19.66;69.52;100425.78;5022417;28;45524;-74
2022/08/07 02:14:56;;;;;;;;;11.00;9.67;;;;;19.42;69.30;100394.22;5022316;28;46034;-75
2022/08/07 02:17:23;;;;;;;;;11.33;8.00;;;;;19.56;69.26;100408.22;5021975;28;45490;-75
2022/08/07 02:19:52;;;;;;;;;9.00;8.33;;;;;19.72;68.83;100421.38;5022412;28;45477;-75
2022/08/07 02:22:19;;;;;;;;;9.00;8.33;;;;;19.76;68.43;100417.81;5019176;28;45399;-74
2022/08/07 02:24:47;;;;;;;;;8.67;8.67;;;;;19.78;68.56;100410.72;5034001;28;46217;-75
2022/08/07 02:27:17;;;;;;;;;10.00;9.67;;;;;19.66;68.99;100388.69;5023686;28;45513;-75
2022/08/07 02:29:44;;;;;;;;;11.33;9.33;;;;;19.79;68.73;100415.09;5038043;28;45311;-75
2022/08/07 02:32:12;;;;;;;;;11.00;8.67;;;;;19.68;68.94;100407.22;5025491;28;45513;-75
2022/08/07 02:34:43;;;;;;;;;9.33;8.00;;;;;19.63;69.32;100415.22;5027890;28;45508;-75
2022/08/07 02:37:10;;;;;;;;;8.00;7.33;;;;;19.18;69.26;100339.69;5032133;28;45507;-75
2022/08/07 02:39:38;;;;;;;;;8.67;8.67;;;;;19.63;68.85;100409.03;5028271;28;45480;-75
2022/08/07 02:42:06;;;;;;;;;9.33;9.00;;;;;19.59;68.98;100413.47;5024158;28;46224;-75
2022/08/07 02:44:32;;;;;;;;;11.00;9.33;;;;;19.25;68.79;100354.63;5018612;28;45212;-75
2022/08/07 02:46:59;;;;;;;;;7.67;7.67;;;;;19.51;69.49;100417.97;5018564;28;45500;-75
2022/08/07 02:49:25;;;;;;;;;11.67;11.00;;;;;19.52;69.27;100410.91;5028567;28;45260;-75
2022/08/07 02:51:54;;;;;;;;;9.67;8.00;;;;;19.52;69.04;100417.09;5024028;28;45460;-75
2022/08/07 02:54:22;;;;;;;;;9.00;9.00;;;;;19.54;69.07;100409.16;5020792;28;45433;-74
2022/08/07 02:56:49;;;;;;;;;10.67;9.33;;;;;19.57;69.07;100411.75;5030538;28;45632;-75
2022/08/07 02:59:18;;;;;;;;;11.67;9.00;;;;;19.48;69.86;100418.03;5029121;28;45501;-75
2022/08/07 03:01:45;;;;;;;;;7.00;7.00;;;;;19.32;69.95;100421.66;5022709;28;45616;-75
2022/08/07 03:04:12;;;;;;;;;9.33;9.00;;;;;19.20;70.11;100415.59;5033389;28;46537;-75
2022/08/07 03:06:40;;;;;;;;;10.33;9.67;;;;;19.08;70.33;100403.31;5024880;28;45592;-75
2022/08/07 03:09:08;;;;;;;;;10.33;9.67;;;;;19.15;70.85;100412.09;5026178;28;45496;-74
2022/08/07 03:11:35;;;;;;;;;12.00;10.33;;;;;19.16;70.61;100415.59;5018539;28;45506;-74
2022/08/07 03:14:03;;;;;;;;;10.00;8.33;;;;;18.86;70.24;100360.25;5030775;28;45507;-74
2022/08/07 03:16:30;;;;;;;;;9.67;9.67;;;;;19.27;70.03;100421.72;5017824;28;45529;-75
2022/08/07 03:18:57;;;;;;;;;10.00;10.00;;;;;19.29;69.98;100411.97;5029879;28;45440;-74
2022/08/07 03:21:24;;;;;;;;;7.67;7.00;;;;;19.02;69.87;100370.69;5022243;28;45466;-75
2022/08/07 03:23:53;;;;;;;;;10.00;10.00;;;;;19.30;69.70;100415.50;5017974;28;46378;-74
2022/08/07 03:26:22;;;;;;;;;9.67;9.33;;;;;19.28;69.92;100416.41;5017849;28;45547;-74
2022/08/07 03:28:48;;;;;;;;;11.00;11.00;;;;;19.03;70.54;100378.63;5030288;28;45610;-74
2022/08/07 03:31:17;;;;;;;;;10.33;10.33;;;;;19.01;70.18;100383.06;5021097;28;45848;-75
2022/08/07 03:33:54;;;;;;;;;8.33;8.33;;;;;19.16;70.24;100405.00;5022287;28;45510;-74
2022/08/07 03:36:22;;;;;;;;;10.00;10.00;;;;;19.26;69.83;100415.53;5027644;28;45468;-75
2022/08/07 03:38:51;;;;;;;;;10.00;10.00;;;;;19.31;69.82;100414.63;5032373;28;45281;-75
2022/08/07 03:41:17;;;;;;;;;9.67;9.33;;;;;19.33;69.44;100416.34;5019577;28;45563;-74
2022/08/07 03:43:43;;;;;;;;;10.00;10.00;;;;;19.13;69.81;100400.63;5036155;28;45520;-74
2022/08/07 03:46:11;;;;;;;;;10.67;9.67;;;;;19.23;70.00;100419.97;5026231;28;45374;-74
2022/08/07 03:48:37;;;;;;;;;8.33;8.33;;;;;19.22;69.73;100418.22;5032337;28;45349;-74
2022/08/07 03:51:04;;;;;;;;;10.67;8.00;;;;;19.24;69.43;100430.56;5018417;28;45582;-74
2022/08/07 03:53:30;;;;;;;;;8.00;8.00;;;;;19.25;69.89;100432.31;5017574;28;45556;-74
2022/08/07 03:55:58;;;;;;;;;10.00;8.33;;;;;18.95;70.40;100388.41;5028142;28;45783;-75
2022/08/07 03:58:24;;;;;;;;;9.00;9.00;;;;;19.17;70.51;100423.53;5022319;28;45676;-75
2022/08/07 04:00:53;;;;;;;;;11.67;9.33;;;;;19.10;70.45;100413.91;5035849;28;45418;-74
2022/08/07 04:03:20;;;;;;;;;10.00;8.33;;;;;18.86;70.00;100380.50;5029562;28;45394;-74
2022/08/07 04:05:45;;;;;;;;;10.00;10.00;;;;;19.20;69.87;100425.28;5028350;28;45481;-75
2022/08/07 04:08:13;;;;;;;;;10.00;9.33;;;;;19.23;69.71;100427.91;5021368;28;45480;-74
2022/08/07 04:10:40;;;;;;;;;8.00;8.00;;;;;19.25;69.65;100431.44;5037088;28;45473;-75
2022/08/07 04:13:06;;;;;;;;;8.33;8.33;;;;;19.26;69.46;100427.91;5033901;28;46349;-75
2022/08/07 04:15:33;;;;;;;;;9.33;8.67;;;;;19.26;70.04;100428.78;5036561;28;45528;-74
2022/08/07 04:18:00;;;;;;;;;10.33;9.33;;;;;18.72;69.87;100343.56;5036637;28;45168;-75
2022/08/07 04:20:26;;;;;;;;;8.33;8.33;;;;;19.22;69.78;100428.81;5036869;28;45485;-75
2022/08/07 04:22:52;;;;;;;;;10.67;10.67;;;;;19.17;70.12;100439.44;5035634;28;45785;-75
2022/08/07 04:25:21;;;;;;;;;10.00;8.33;;;;;19.15;69.85;100427.97;5035707;28;45366;-75
2022/08/07 04:27:46;;;;;;;;;8.33;7.67;;;;;19.19;69.54;100434.13;5036265;28;45390;-74
2022/08/07 04:30:12;;;;;;;;;11.67;9.00;;;;;19.16;70.47;100440.34;5030761;28;45486;-75
2022/08/07 04:32:38;;;;;;;;;10.00;8.67;;;;;19.13;70.28;100439.47;5016938;28;45442;-74
2022/08/07 04:35:05;;;;;;;;;11.00;11.00;;;;;19.03;70.51;100428.94;5028392;28;45576;-74
2022/08/07 04:37:32;;;;;;;;;9.33;8.33;;;;;18.79;70.82;100397.31;5030017;28;45483;-74
2022/08/07 04:39:58;;;;;;;;;11.33;10.33;;;;;18.84;70.70;100412.31;5036606;28;45266;-74
2022/08/07 04:42:27;;;;;;;;;9.00;8.67;;;;;18.99;70.62;100431.63;5020653;28;45456;-75
2022/08/07 04:44:57;;;;;;;;;11.67;11.33;;;;;19.01;70.87;100432.50;5035986;28;45604;-74
2022/08/07 04:47:45;;;;;;;;;10.50;10.00;;;;;19.00;70.48;100434.25;5036912;28;45428;-75
2022/08/07 04:50:33;;;;;;;;;10.00;8.33;;;;;18.92;70.64;100420.19;5017127;28;45555;-74
2022/08/07 04:53:06;;;;;;;;;11.00;11.00;;;;;18.68;70.43;100378.81;5031765;28;45412;-74
2022/08/07 04:55:42;;;;;;;;;11.33;10.33;;;;;19.04;70.69;100425.41;5023075;28;45496;-74
2022/08/07 04:58:19;;;;;;;;;8.67;8.00;;;;;19.06;70.22;100425.41;5023900;28;45503;-74
2022/08/07 05:01:02;;;;;;;;;11.00;11.00;;;;;19.13;70.22;100440.34;5019672;28;45670;-74
2022/08/07 05:03:40;;;;;;;;;12.00;11.00;;;;;19.13;70.12;100445.63;5027249;28;46072;-74
2022/08/07 05:06:14;;;;;;;;;12.00;11.00;;;;;18.98;70.15;100412.22;5016695;28;45553;-74
2022/08/07 05:08:51;;;;;;;;;11.67;11.67;;;;;19.10;70.56;100437.72;5016592;28;45519;-75
2022/08/07 05:11:43;;;;;;;;;10.67;10.33;;;;;19.12;70.42;100443.00;5025411;28;45267;-74
2022/08/07 05:14:14;;;;;;;;;12.67;12.67;;;;;19.10;70.52;100436.81;5019346;28;45362;-75
2022/08/07 05:16:46;;;;;;;;;12.67;11.33;;;;;19.05;70.90;100443.03;5031111;28;45494;-75
2022/08/07 05:19:15;;;;;;;;;12.67;11.67;;;;;19.03;70.64;100442.16;5025821;28;45493;-74
2022/08/07 05:21:49;;;;;;;;;12.67;12.00;;;;;19.17;70.02;100455.31;5021826;28;45286;-75
2022/08/07 05:24:16;;;;;;;;;12.00;11.33;;;;;19.16;70.37;100450.03;5018862;28;45429;-74
2022/08/07 05:26:42;;;;;;;;;11.33;10.67;;;;;19.12;70.54;100449.19;5028512;28;45470;-74
2022/08/07 05:29:10;;;;;;;;;15.00;13.67;;;;;19.02;70.59;100429.84;5027583;28;45412;-74
2022/08/07 05:31:39;;;;;;;;;10.00;10.00;;;;;19.34;69.75;100467.56;5020362;28;45468;-75
2022/08/07 05:34:14;;;;;;;;;10.67;10.67;;;;;19.44;69.14;100466.63;5019419;28;45563;-75
2022/08/07 05:36:43;;;;;;;;;9.33;9.33;;;;;19.45;69.20;100458.63;5026180;28;45442;-75
2022/08/07 05:39:10;;;;;;;;;11.67;10.00;;;;;19.53;69.14;100465.66;5016343;28;45566;-75
2022/08/07 05:41:38;;;;;;;;;11.00;10.00;;;;;19.53;69.01;100461.22;5031643;28;45500;-74
2022/08/07 05:44:04;;;;;;;;;9.33;9.33;;;;;19.51;68.51;100440.94;5020732;28;45948;-75
2022/08/07 05:46:30;;;;;;;;;11.67;10.33;;;;;19.68;68.29;100461.09;5025758;28;45506;-75
2022/08/07 05:48:57;;;;;;;;;10.67;10.67;;;;;19.54;68.29;100428.56;5029211;28;45520;-74
2022/08/07 05:51:23;;;;;;;;;9.67;9.67;;;;;19.66;68.45;100447.00;5019299;28;45540;-75
2022/08/07 05:53:49;;;;;;;;;8.00;8.00;;;;;19.92;67.98;100463.59;5029936;28;45572;-75
2022/08/07 05:56:17;;;;;;;;;9.33;9.33;;;;;19.89;68.10;100448.56;5025015;28;45552;-74
2022/08/07 05:58:45;;;;;;;;;10.33;9.00;;;;;20.15;67.02;100466.00;5026033;28;45536;-74
2022/08/07 06:01:13;;;;;;;;;9.33;8.00;;;;;20.23;67.25;100469.44;5022260;28;45537;-75
2022/08/07 06:03:43;;;;;;;;;10.00;10.00;;;;;20.14;67.27;100435.06;5032450;28;45466;-74
2022/08/07 06:06:10;;;;;;;;;8.00;8.00;;;;;20.37;66.78;100450.72;5029607;28;45365;-74
2022/08/07 06:08:38;;;;;;;;;10.00;9.00;;;;;20.58;66.60;100470.81;5024020;28;45433;-74
2022/08/07 06:11:04;;;;;;;;;10.33;10.00;;;;;20.66;66.11;100471.63;5034729;28;45605;-75
2022/08/07 06:13:30;;;;;;;;;8.00;7.00;;;;;20.81;65.75;100471.44;5025512;28;45937;-74
2022/08/07 06:15:57;;;;;;;;;10.33;10.33;;;;;20.89;65.38;100475.75;5028148;28;45328;-74
2022/08/07 06:18:23;;;;;;;;;9.67;9.67;;;;;20.95;64.95;100470.34;5019268;28;45558;-75
2022/08/07 06:20:51;;;;;;;;;8.67;8.67;;;;;21.17;65.04;100481.53;5019026;28;46486;-74
2022/08/07 06:23:17;;;;;;;;;9.67;9.67;;;;;21.30;64.46;100479.59;5018173;28;45572;-75
2022/08/07 06:25:44;;;;;;;;;9.00;9.00;;;;;22.36;62.79;100465.41;5018798;28;45592;-75
2022/08/07 06:28:10;;;;;;;;;12.67;10.33;;;;;24.93;54.01;100479.47;5034915;28;45785;-75
2022/08/07 06:30:37;;;;;;;;;10.00;8.67;;;;;26.75;49.96;100477.78;5030616;28;45560;-74
2022/08/07 06:33:04;;;;;;;;;7.67;7.67;;;;;28.12;46.15;100474.03;5023645;28;45955;-75
2022/08/07 06:35:30;;;;;;;;;9.00;9.00;;;;;29.32;44.55;100474.75;5027487;28;45503;-75
2022/08/07 06:37:57;;;;;;;;;6.33;6.00;;;;;30.31;42.47;100477.88;5018633;28;45497;-75
2022/08/07 06:40:23;;;;;;;;;9.00;8.33;;;;;31.01;38.98;100465.06;5036815;28;45397;-75
2022/08/07 06:42:51;;;;;;;;;10.00;9.00;;;;;31.98;37.64;100485.56;5037559;28;45503;-75
2022/08/07 06:45:20;;;;;;;;;9.00;9.00;;;;;32.82;36.02;100461.41;5037196;28;45497;-76
2022/08/07 06:47:46;;;;;;;;;7.33;7.33;;;;;33.72;34.87;100467.28;5022780;28;45570;-76
2022/08/07 06:50:12;;;;;;;;;7.67;7.00;;;;;34.41;33.85;100469.75;5033879;28;45409;-75
2022/08/07 06:52:42;;;;;;;;;8.00;8.00;;;;;34.78;32.59;100402.00;5018385;28;45504;-75
2022/08/07 06:55:27;;;;;;;;;6.33;6.33;;;;;35.96;30.93;100488.19;5029991;28;45355;-76
2022/08/07 06:57:58;;;;;;;;;9.33;8.00;;;;;36.58;29.76;100481.50;5019521;28;45567;-76
2022/08/07 07:00:27;;;;;;;;;8.33;7.67;;;;;37.18;29.27;100487.53;5024965;28;45565;-76
2022/08/07 07:02:54;;;;;;;;;8.67;6.67;;;;;37.79;27.76;100492.44;5026056;28;46016;-76
2022/08/07 07:05:20;;;;;;;;;5.33;5.33;;;;;38.03;26.79;100450.41;5033627;28;45429;-74
2022/08/07 07:07:46;;;;;;;;;7.00;6.00;;;;;38.58;26.46;100492.00;5021095;28;45415;-75
2022/08/07 07:10:13;;;;;;;;;6.67;6.00;;;;;39.22;26.60;100492.66;5037674;28;45445;-75
2022/08/07 07:12:46;;;;;;;;;7.00;6.00;;;;;39.63;26.29;100492.56;5036889;28;45324;-75
2022/08/07 07:15:18;;;;;;;;;7.33;6.33;;;;;40.16;25.89;100498.44;5021070;28;45450;-75
2022/08/07 07:17:57;;;;;;;;;6.33;6.33;;;;;40.74;26.94;100489.22;5018478;28;45238;-75
2022/08/07 07:20:29;;;;;;;;;5.00;5.00;;;;;40.95;23.85;100464.31;5028908;28;46206;-75
2022/08/07 07:22:55;;;;;;;;;6.33;6.33;;;;;41.26;23.58;100480.44;5021158;28;46113;-75
2022/08/07 07:25:21;;;;;;;;;6.33;6.33;;;;;41.55;23.61;100471.13;5033502;28;45761;-76
2022/08/07 07:28:11;;;;;;;;;6.00;5.67;;;;;41.85;23.07;100494.56;5017937;28;45585;-75
2022/08/07 07:30:41;;;;;;;;;6.00;6.00;;;;;42.11;22.26;100461.69;5033057;28;45492;-76
2022/08/07 07:33:11;;;;;;;;;6.67;6.67;;;;;42.63;22.41;100470.94;5033495;28;46071;-76
2022/08/07 07:35:39;;;;;;;;;6.00;5.67;;;;;43.09;21.48;100482.44;5025027;28;45532;-76
2022/08/07 07:38:06;;;;;;;;;6.67;6.67;;;;;43.40;21.44;100490.13;5025583;28;45379;-76
2022/08/07 07:40:35;;;;;;;;;6.00;6.00;;;;;43.64;21.04;100484.63;5033112;28;45453;-76
2022/08/07 07:43:04;;;;;;;;;6.33;6.33;;;;;43.92;20.37;100453.19;5017196;28;46138;-76
2022/08/07 07:45:31;;;;;;;;;7.67;7.00;;;;;44.61;20.37;100487.50;5017242;28;45465;-76
2022/08/07 07:47:58;;;;;;;;;6.00;6.00;;;;;45.08;20.24;100479.38;5029863;28;45562;-76
2022/08/07 07:50:26;;;;;;;;;9.00;8.00;;;;;45.52;19.53;100485.13;5019983;28;45528;-76
2022/08/07 07:52:53;;;;;;;;;6.33;6.33;;;;;45.70;18.86;100475.72;5021979;28;45951;-76
2022/08/07 07:55:32;;;;;;;;;6.67;6.67;;;;;45.82;18.74;100453.00;5036543;28;45393;-76
2022/08/07 07:57:59;;;;;;;;;12.33;10.00;;;;;44.75;18.36;100202.09;5036133;28;45451;-76
2022/08/07 08:00:27;;;;;;;;;16.33;10.33;;;;;45.78;18.51;100337.63;5020444;28;45584;-76
2022/08/07 08:02:56;;;;;;;;;7.33;6.33;;;;;45.70;18.78;100249.44;5029133;28;46096;-77
2022/08/07 08:05:23;;;;;;;;;6.33;5.33;;;;;47.38;18.39;100425.38;5015549;28;45481;-77
2022/08/07 08:07:49;;;;;;;;;7.00;6.00;;;;;47.92;17.11;100471.88;5032227;28;45572;-77
2022/08/07 08:10:16;;;;;;;;;9.00;7.67;;;;;47.68;17.47;100369.88;5019932;28;45556;-77
2022/08/07 08:12:44;;;;;;;;;6.00;6.00;;;;;46.40;16.29;100204.66;5029026;28;46044;-76
2022/08/07 08:15:10;;;;;;;;;6.00;6.00;;;;;46.83;17.03;100334.59;5032691;28;46032;-76
2022/08/07 08:17:36;;;;;;;;;5.00;5.00;;;;;46.42;18.03;100252.31;5032895;28;45434;-77
2022/08/07 08:20:05;;;;;;;;;6.67;6.33;;;;;46.73;17.22;100217.09;5016584;28;45714;-77
2022/08/07 08:28:08;;;;;;;;;4.00;4.00;;;;;49.02;16.39;100458.25;5031136;28;45555;-77
2022/08/07 08:30:35;;;;;;;;;6.00;6.00;;;;;48.14;17.28;100338.88;5058364;27;45439;-77
2022/08/07 08:33:04;;;;;;;;;8.00;8.00;;;;;49.26;16.60;100464.28;5035741;28;45498;-76
2022/08/07 08:35:32;;;;;;;;;7.33;6.67;;;;;49.50;15.84;100448.97;5033585;28;45358;-75
2022/08/07 08:38:02;;;;;;;;;9.00;9.00;;;;;49.95;15.69;100461.16;5016537;28;45410;-76
2022/08/07 08:40:36;;;;;;;;;6.00;6.00;;;;;50.22;15.98;100460.28;5036556;28;45331;-76
2022/08/07 08:43:22;;;;;;;;;6.00;5.33;;;;;50.34;15.88;100439.94;5026761;28;46231;-77
2022/08/07 08:46:04;;;;;;;;;39.75;32.00;;;;;50.52;14.67;100457.84;5017657;28;45214;-77
2022/08/07 08:48:54;;;;;;;;;13.33;11.33;;;;;50.09;15.52;100445.34;5016541;28;45504;-77
2022/08/07 08:51:34;;;;;;;;;6.33;6.00;;;;;49.66;16.20;100336.63;5016480;28;45465;-77
2022/08/07 08:54:17;;;;;;;;;7.00;6.33;;;;;50.48;15.62;100445.47;5016254;28;46547;-77
2022/08/07 08:56:48;;;;;;;;;6.00;6.00;;;;;49.79;14.35;100299.69;5027721;28;45357;-77
2022/08/07 08:59:25;;;;;;;;;4.67;4.67;;;;;49.37;15.96;100247.25;5034554;28;45173;-77
2022/08/07 09:02:08;;;;;;;;;6.33;5.67;;;;;49.26;16.49;100311.69;5028589;28;45516;-76
2022/08/07 09:04:40;;;;;;;;;6.00;6.00;;;;;49.26;15.46;100290.31;5015824;28;45393;-76
2022/08/07 09:07:30;;;;;;;;;5.33;5.33;;;;;50.11;16.16;100442.34;5044825;28;45638;-76
2022/08/07 09:10:10;;;;;;;;;5.33;5.00;;;;;49.04;15.86;100261.13;5023673;28;45375;-77
2022/08/07 09:12:47;;;;;;;;;6.00;6.00;;;;;49.84;16.76;100436.78;5020330;28;45627;-76
2022/08/07 09:15:34;;;;;;;;;5.33;5.00;;;;;49.85;16.31;100423.78;5015851;28;45791;-76
2022/08/07 09:19:01;;;;;;;;;7.33;6.00;;;;;49.62;16.03;100422.25;5026495;28;45510;-77
2022/08/07 09:21:44;;;;;;;;;5.00;5.00;;;;;49.49;16.96;100406.47;4952964;28;45536;-76
2022/08/07 09:24:31;;;;;;;;;5.00;5.00;;;;;49.60;16.56;100423.56;4942040;28;45740;-77
2022/08/07 09:27:15;;;;;;;;;5.00;5.00;;;;;48.55;16.36;100279.75;5039232;28;47095;-77
2022/08/07 09:30:04;;;;;;;;;7.00;7.00;;;;;49.47;16.10;100414.16;5024737;28;45390;-77
2022/08/07 09:32:41;;;;;;;;;7.00;6.33;;;;;49.29;16.31;100409.22;5013641;28;45492;-76
2022/08/07 09:35:39;;;;;;;;;7.00;6.33;;;;;47.81;17.52;100342.25;5034278;28;45510;-77
2022/08/07 09:38:06;;;;;;;;;5.67;5.67;;;;;48.34;17.35;100400.78;5034020;28;45522;-76
2022/08/07 09:40:56;;;;;;;;;7.33;7.33;;;;;46.80;17.22;100127.69;5050869;28;45683;-78
2022/08/07 09:43:41;;;;;;;;;5.67;5.00;;;;;47.96;16.85;100395.63;5024810;28;45901;-76
2022/08/07 09:46:26;;;;;;;;;5.67;5.67;;;;;47.53;18.08;100395.69;5034420;28;45441;-77
2022/08/07 09:49:30;;;;;;;;;5.33;5.33;;;;;46.49;17.84;100226.66;5024039;28;45448;-78
2022/08/07 09:52:12;;;;;;;;;4.67;4.00;;;;;47.21;18.84;100389.66;5019007;28;45704;-78
2022/08/07 09:54:44;;;;;;;;;7.33;6.00;;;;;47.17;17.96;100366.22;5030730;28;45544;-77
2022/08/07 09:57:36;;;;;;;;;8.67;8.00;;;;;47.42;17.66;100396.25;5018398;28;45492;-76
2022/08/07 10:00:07;;;;;;;;;8.33;6.33;;;;;47.25;18.70;100392.03;5035934;28;46701;-77
2022/08/07 10:02:57;;;;;;;;;6.00;6.00;;;;;47.08;18.34;100397.81;5029974;28;45584;-77
2022/08/07 10:05:30;;;;;;;;;6.33;6.33;;;;;47.24;17.66;100390.31;5018529;28;45335;-77
2022/08/07 10:08:43;;;;;;;;;5.33;5.00;;;;;46.83;18.59;100370.53;5022431;28;45482;-77
2022/08/07 10:11:32;;;;;;;;;8.33;7.00;;;;;46.83;18.45;100384.34;5023539;28;46492;-77
2022/08/07 10:14:26;;;;;;;;;6.00;6.00;;;;;46.56;18.67;100387.81;5037153;28;45713;-77
2022/08/07 10:17:15;;;;;;;;;9.00;6.33;;;;;47.08;19.30;100388.63;5027727;28;45470;-78
2022/08/07 10:20:18;;;;;;;;;6.67;6.67;;;;;47.38;17.74;100386.63;5034467;28;45429;-77
2022/08/07 10:22:56;;;;;;;;;7.67;7.67;;;;;47.48;18.09;100384.38;5020686;28;46008;-77
2022/08/07 10:25:30;;;;;;;;;7.67;6.67;;;;;46.56;17.94;100249.66;5021666;28;45385;-77
2022/08/07 10:28:20;;;;;;;;;7.00;6.67;;;;;47.10;18.53;100383.75;5025944;28;45501;-77
2022/08/07 10:31:03;;;;;;;;;8.00;8.00;;;;;45.54;20.39;100371.84;5033750;28;45320;-77
2022/08/07 10:33:54;;;;;;;;;7.67;7.33;;;;;46.00;20.30;100367.06;5017157;28;46009;-76
2022/08/07 10:36:29;;;;;;;;;6.67;5.67;;;;;46.21;19.92;100354.44;5032539;28;45343;-77
2022/08/07 10:39:02;;;;;;;;;7.67;7.67;;;;;46.72;19.63;100364.63;5030800;28;45569;-77
2022/08/07 10:41:28;;;;;;;;;8.00;7.00;;;;;46.69;19.82;100365.88;5028492;28;45614;-77
2022/08/07 10:44:01;;;;;;;;;9.67;8.67;;;;;46.30;20.00;100299.91;5022554;28;45969;-77
2022/08/07 10:46:34;;;;;;;;;8.00;7.67;;;;;46.15;20.27;100291.69;5024002;28;45439;-77
2022/08/07 10:49:30;;;;;;;;;8.33;8.00;;;;;45.57;20.20;100313.53;5028144;28;45670;-77
2022/08/07 10:52:13;;;;;;;;;9.67;9.00;;;;;45.40;21.18;100349.53;5027977;28;45452;-76
2022/08/07 10:54:51;;;;;;;;;6.67;6.33;;;;;45.49;21.41;100341.22;5021380;28;45630;-76
2022/08/07 10:57:45;;;;;;;;;7.00;7.00;;;;;45.43;21.15;100349.19;5030596;28;45680;-77
2022/08/07 11:00:15;;;;;;;;;8.00;8.00;;;;;45.20;21.28;100326.25;5032490;28;45512;-76
2022/08/07 11:02:58;;;;;;;;;10.00;8.00;;;;;43.99;21.56;100156.97;5018702;28;45425;-76
2022/08/07 11:05:40;;;;;;;;;10.00;8.33;;;;;44.92;21.44;100339.75;5027191;28;46290;-77
2022/08/07 11:08:15;;;;;;;;;8.00;8.00;;;;;43.98;21.96;100342.41;5021587;28;45350;-76
2022/08/07 11:11:00;;;;;;;;;8.33;8.00;;;;;43.46;23.00;100330.78;5017880;28;45565;-76
2022/08/07 11:13:45;;;;;;;;;9.00;9.00;;;;;43.06;22.96;100337.16;5017929;28;45350;-76
2022/08/07 11:16:27;;;;;;;;;10.00;9.67;;;;;42.46;23.69;100336.31;5019949;28;46081;-76
2022/08/07 11:19:28;;;;;;;;;9.67;9.00;;;;;41.94;24.04;100328.13;5036871;28;45433;-76
2022/08/07 11:22:05;;;;;;;;;10.00;9.67;;;;;41.46;24.75;100332.25;5019761;28;45552;-76
2022/08/07 11:24:57;;;;;;;;;12.00;9.67;;;;;40.89;25.39;100317.03;5017639;28;45524;-76
2022/08/07 11:27:52;;;;;;;;;10.00;10.00;;;;;40.46;26.19;100328.69;5049250;28;46696;-76
2022/08/07 11:30:23;;;;;;;;;9.33;9.33;;;;;40.07;25.93;100323.38;5017699;28;45397;-76
2022/08/07 11:33:14;;;;;;;;;10.00;8.00;;;;;37.59;26.61;100000.88;5028406;28;46241;-76
2022/08/07 11:35:45;;;;;;;;;9.00;9.00;;;;;39.23;27.63;100327.69;5009364;28;45549;-76
2022/08/07 11:38:25;;;;;;;;;11.00;10.33;;;;;38.90;27.51;100321.66;5024380;28;45365;-76
2022/08/07 11:40:58;;;;;;;;;10.00;9.00;;;;;38.64;27.12;100332.25;5023707;28;45327;-75
2022/08/07 11:43:34;;;;;;;;;10.67;10.67;;;;;38.36;28.09;100331.13;5033817;28;45429;-75
2022/08/07 11:46:08;;;;;;;;;11.67;11.00;;;;;37.49;28.46;100294.25;5021598;28;45416;-75
2022/08/07 11:49:01;;;;;;;;;11.00;10.33;;;;;37.63;28.82;100327.66;5028461;28;46544;-74
2022/08/07 11:51:56;;;;;;;;;15.67;14.33;;;;;37.44;29.29;100318.28;5032577;28;45289;-75